sensor_id;sensor_type;location;lat;lon;timestamp;P1;durP1;ratioP1;P2;durP2;ratioP2
54125;SDS011;40360;52.992;6.796;2023-08-17T00:00:32;8.73;;;2.63;;
54125;SDS011;40360;52.992;6.796;2023-08-17T00:02:58;7.97;;;3.45;;
54125;SDS011;40360;52.992;6.796;2023-08-17T00:05:24;8.23;;;3.60;;
54125;SDS011;40360;52.992;6.796;2023-08-17T00:07:51;8.50;;;3.80;;
54125;SDS011;40360;52.992;6.796;2023-08-17T00:10:17;7.13;;;3.53;;
54125;SDS011;40360;52.992;6.796;2023-08-17T00:12:42;7.65;;;4.03;;
54125;SDS011;40360;52.992;6.796;2023-08-17T00:15:08;8.45;;;3.80;;
54125;SDS011;40360;52.992;6.796;2023-08-17T00:17:34;8.45;;;4.50;;
54125;SDS011;40360;52.992;6.796;2023-08-17T00:20:00;7.80;;;4.00;;
54125;SDS011;40360;52.992;6.796;2023-08-17T00:22:25;6.55;;;3.65;;
54125;SDS011;40360;52.992;6.796;2023-08-17T00:24:51;7.80;;;4.22;;
54125;SDS011;40360;52.992;6.796;2023-08-17T00:27:17;7.68;;;4.30;;
54125;SDS011;40360;52.992;6.796;2023-08-17T00:29:42;6.20;;;4.20;;
54125;SDS011;40360;52.992;6.796;2023-08-17T00:32:08;7.20;;;3.80;;
54125;SDS011;40360;52.992;6.796;2023-08-17T00:34:33;10.60;;;4.05;;
54125;SDS011;40360;52.992;6.796;2023-08-17T00:36:59;7.75;;;4.20;;
54125;SDS011;40360;52.992;6.796;2023-08-17T00:39:25;7.50;;;5.15;;
54125;SDS011;40360;52.992;6.796;2023-08-17T00:41:50;5.57;;;3.88;;
54125;SDS011;40360;52.992;6.796;2023-08-17T00:44:16;4.35;;;3.70;;
54125;SDS011;40360;52.992;6.796;2023-08-17T00:46:42;6.80;;;3.95;;
54125;SDS011;40360;52.992;6.796;2023-08-17T00:49:08;5.90;;;4.20;;
54125;SDS011;40360;52.992;6.796;2023-08-17T00:51:35;8.30;;;3.55;;
54125;SDS011;40360;52.992;6.796;2023-08-17T00:54:01;7.80;;;4.30;;
54125;SDS011;40360;52.992;6.796;2023-08-17T00:56:27;4.93;;;3.13;;
54125;SDS011;40360;52.992;6.796;2023-08-17T00:58:54;6.57;;;3.60;;
54125;SDS011;40360;52.992;6.796;2023-08-17T01:01:20;8.85;;;3.97;;
54125;SDS011;40360;52.992;6.796;2023-08-17T01:03:46;7.13;;;3.10;;
54125;SDS011;40360;52.992;6.796;2023-08-17T01:06:12;7.35;;;3.20;;
54125;SDS011;40360;52.992;6.796;2023-08-17T01:08:37;6.47;;;3.78;;
54125;SDS011;40360;52.992;6.796;2023-08-17T01:16:35;6.55;;;3.75;;
54125;SDS011;40360;52.992;6.796;2023-08-17T01:19:26;6.43;;;3.13;;
54125;SDS011;40360;52.992;6.796;2023-08-17T01:21:57;7.38;;;3.47;;
54125;SDS011;40360;52.992;6.796;2023-08-17T01:24:28;5.75;;;3.13;;
54125;SDS011;40360;52.992;6.796;2023-08-17T01:26:53;5.32;;;3.05;;
54125;SDS011;40360;52.992;6.796;2023-08-17T01:29:19;5.20;;;3.20;;
54125;SDS011;40360;52.992;6.796;2023-08-17T01:32:03;9.57;;;3.72;;
54125;SDS011;40360;52.992;6.796;2023-08-17T01:34:44;4.88;;;2.67;;
54125;SDS011;40360;52.992;6.796;2023-08-17T01:37:15;7.80;;;3.08;;
54125;SDS011;40360;52.992;6.796;2023-08-17T01:39:45;5.55;;;2.83;;
54125;SDS011;40360;52.992;6.796;2023-08-17T01:42:16;5.45;;;3.38;;
54125;SDS011;40360;52.992;6.796;2023-08-17T01:44:42;5.45;;;2.80;;
54125;SDS011;40360;52.992;6.796;2023-08-17T01:47:08;5.32;;;3.08;;
54125;SDS011;40360;52.992;6.796;2023-08-17T01:49:35;4.85;;;2.95;;
54125;SDS011;40360;52.992;6.796;2023-08-17T01:52:01;8.10;;;3.53;;
54125;SDS011;40360;52.992;6.796;2023-08-17T01:54:27;5.03;;;3.10;;
54125;SDS011;40360;52.992;6.796;2023-08-17T01:56:53;3.50;;;2.85;;
54125;SDS011;40360;52.992;6.796;2023-08-17T01:59:18;8.70;;;3.97;;
54125;SDS011;40360;52.992;6.796;2023-08-17T02:01:44;5.03;;;3.17;;
54125;SDS011;40360;52.992;6.796;2023-08-17T02:04:10;7.10;;;3.60;;
54125;SDS011;40360;52.992;6.796;2023-08-17T02:06:35;6.47;;;3.72;;
54125;SDS011;40360;52.992;6.796;2023-08-17T02:09:01;7.32;;;3.63;;
54125;SDS011;40360;52.992;6.796;2023-08-17T02:11:27;7.70;;;3.50;;
54125;SDS011;40360;52.992;6.796;2023-08-17T02:13:52;6.65;;;3.08;;
54125;SDS011;40360;52.992;6.796;2023-08-17T02:16:18;7.47;;;3.72;;
54125;SDS011;40360;52.992;6.796;2023-08-17T02:18:43;5.53;;;3.00;;
54125;SDS011;40360;52.992;6.796;2023-08-17T02:21:09;11.23;;;3.70;;
54125;SDS011;40360;52.992;6.796;2023-08-17T02:23:35;7.60;;;3.35;;
54125;SDS011;40360;52.992;6.796;2023-08-17T02:26:01;9.63;;;4.60;;
54125;SDS011;40360;52.992;6.796;2023-08-17T02:28:26;8.88;;;3.38;;
54125;SDS011;40360;52.992;6.796;2023-08-17T02:30:55;7.63;;;4.22;;
54125;SDS011;40360;52.992;6.796;2023-08-17T02:33:22;5.70;;;3.67;;
54125;SDS011;40360;52.992;6.796;2023-08-17T02:35:49;6.82;;;3.97;;
54125;SDS011;40360;52.992;6.796;2023-08-17T02:38:15;5.63;;;3.63;;
54125;SDS011;40360;52.992;6.796;2023-08-17T02:40:40;7.70;;;4.05;;
54125;SDS011;40360;52.992;6.796;2023-08-17T02:43:06;6.63;;;4.15;;
54125;SDS011;40360;52.992;6.796;2023-08-17T02:45:33;10.32;;;4.00;;
54125;SDS011;40360;52.992;6.796;2023-08-17T02:47:59;9.00;;;4.10;;
54125;SDS011;40360;52.992;6.796;2023-08-17T02:50:24;9.40;;;4.07;;
54125;SDS011;40360;52.992;6.796;2023-08-17T02:52:50;7.35;;;4.25;;
54125;SDS011;40360;52.992;6.796;2023-08-17T02:55:16;8.13;;;4.50;;
54125;SDS011;40360;52.992;6.796;2023-08-17T02:57:41;7.10;;;4.35;;
54125;SDS011;40360;52.992;6.796;2023-08-17T03:00:07;6.40;;;3.75;;
54125;SDS011;40360;52.992;6.796;2023-08-17T03:02:33;7.88;;;4.18;;
54125;SDS011;40360;52.992;6.796;2023-08-17T03:04:59;10.90;;;4.10;;
54125;SDS011;40360;52.992;6.796;2023-08-17T03:07:25;6.55;;;4.10;;
54125;SDS011;40360;52.992;6.796;2023-08-17T03:09:50;8.18;;;4.25;;
54125;SDS011;40360;52.992;6.796;2023-08-17T03:12:16;6.45;;;4.13;;
54125;SDS011;40360;52.992;6.796;2023-08-17T03:14:41;9.93;;;4.70;;
54125;SDS011;40360;52.992;6.796;2023-08-17T03:17:07;7.28;;;4.65;;
54125;SDS011;40360;52.992;6.796;2023-08-17T03:19:33;16.42;;;5.22;;
54125;SDS011;40360;52.992;6.796;2023-08-17T03:21:58;10.00;;;4.90;;
54125;SDS011;40360;52.992;6.796;2023-08-17T03:24:24;9.98;;;4.70;;
54125;SDS011;40360;52.992;6.796;2023-08-17T03:26:49;6.38;;;4.65;;
54125;SDS011;40360;52.992;6.796;2023-08-17T03:29:15;7.55;;;5.10;;
54125;SDS011;40360;52.992;6.796;2023-08-17T03:31:41;8.18;;;4.53;;
54125;SDS011;40360;52.992;6.796;2023-08-17T03:34:06;6.95;;;4.00;;
54125;SDS011;40360;52.992;6.796;2023-08-17T03:36:32;7.45;;;4.78;;
54125;SDS011;40360;52.992;6.796;2023-08-17T03:38:57;9.10;;;4.43;;
54125;SDS011;40360;52.992;6.796;2023-08-17T03:41:24;7.70;;;5.10;;
54125;SDS011;40360;52.992;6.796;2023-08-17T03:43:49;8.43;;;4.22;;
54125;SDS011;40360;52.992;6.796;2023-08-17T03:46:15;13.20;;;4.78;;
54125;SDS011;40360;52.992;6.796;2023-08-17T03:48:40;8.82;;;4.60;;
54125;SDS011;40360;52.992;6.796;2023-08-17T03:51:06;10.35;;;4.50;;
54125;SDS011;40360;52.992;6.796;2023-08-17T03:53:32;6.43;;;4.22;;
54125;SDS011;40360;52.992;6.796;2023-08-17T03:55:58;7.55;;;4.22;;
54125;SDS011;40360;52.992;6.796;2023-08-17T03:58:23;8.70;;;4.28;;
54125;SDS011;40360;52.992;6.796;2023-08-17T04:00:51;6.90;;;4.40;;
54125;SDS011;40360;52.992;6.796;2023-08-17T04:03:18;7.70;;;4.13;;
54125;SDS011;40360;52.992;6.796;2023-08-17T04:05:44;10.93;;;4.35;;
54125;SDS011;40360;52.992;6.796;2023-08-17T04:08:10;8.82;;;4.07;;
54125;SDS011;40360;52.992;6.796;2023-08-17T04:10:36;5.40;;;3.97;;
54125;SDS011;40360;52.992;6.796;2023-08-17T04:13:01;8.25;;;3.58;;
54125;SDS011;40360;52.992;6.796;2023-08-17T04:15:27;6.30;;;3.70;;
54125;SDS011;40360;52.992;6.796;2023-08-17T04:17:53;7.80;;;4.25;;
54125;SDS011;40360;52.992;6.796;2023-08-17T04:20:18;8.23;;;4.03;;
54125;SDS011;40360;52.992;6.796;2023-08-17T04:22:44;6.72;;;3.95;;
54125;SDS011;40360;52.992;6.796;2023-08-17T04:25:10;5.05;;;3.65;;
54125;SDS011;40360;52.992;6.796;2023-08-17T04:27:36;6.25;;;3.85;;
54125;SDS011;40360;52.992;6.796;2023-08-17T04:30:01;9.57;;;3.42;;
54125;SDS011;40360;52.992;6.796;2023-08-17T04:32:27;7.15;;;3.90;;
54125;SDS011;40360;52.992;6.796;2023-08-17T04:34:53;11.05;;;4.00;;
54125;SDS011;40360;52.992;6.796;2023-08-17T04:37:19;5.30;;;3.13;;
54125;SDS011;40360;52.992;6.796;2023-08-17T04:39:44;6.88;;;3.38;;
54125;SDS011;40360;52.992;6.796;2023-08-17T04:42:10;7.97;;;3.40;;
54125;SDS011;40360;52.992;6.796;2023-08-17T04:44:36;5.50;;;3.00;;
54125;SDS011;40360;52.992;6.796;2023-08-17T04:47:01;9.88;;;4.82;;
54125;SDS011;40360;52.992;6.796;2023-08-17T04:49:27;6.00;;;3.65;;
54125;SDS011;40360;52.992;6.796;2023-08-17T04:51:53;5.55;;;3.45;;
54125;SDS011;40360;52.992;6.796;2023-08-17T04:54:18;9.10;;;3.95;;
54125;SDS011;40360;52.992;6.796;2023-08-17T04:56:44;10.48;;;4.07;;
54125;SDS011;40360;52.992;6.796;2023-08-17T04:59:10;8.32;;;4.05;;
54125;SDS011;40360;52.992;6.796;2023-08-17T05:01:35;8.30;;;3.55;;
54125;SDS011;40360;52.992;6.796;2023-08-17T05:04:02;7.47;;;3.67;;
54125;SDS011;40360;52.992;6.796;2023-08-17T05:06:28;10.43;;;4.35;;
54125;SDS011;40360;52.992;6.796;2023-08-17T05:08:54;8.00;;;4.05;;
54125;SDS011;40360;52.992;6.796;2023-08-17T05:11:19;8.07;;;3.53;;
54125;SDS011;40360;52.992;6.796;2023-08-17T05:13:45;6.47;;;3.22;;
54125;SDS011;40360;52.992;6.796;2023-08-17T05:16:11;8.02;;;3.80;;
54125;SDS011;40360;52.992;6.796;2023-08-17T05:18:36;11.32;;;3.88;;
54125;SDS011;40360;52.992;6.796;2023-08-17T05:21:02;6.22;;;3.92;;
54125;SDS011;40360;52.992;6.796;2023-08-17T05:23:27;6.82;;;3.65;;
54125;SDS011;40360;52.992;6.796;2023-08-17T05:25:53;6.95;;;3.45;;
54125;SDS011;40360;52.992;6.796;2023-08-17T05:28:19;6.97;;;3.78;;
54125;SDS011;40360;52.992;6.796;2023-08-17T05:30:44;10.27;;;3.75;;
54125;SDS011;40360;52.992;6.796;2023-08-17T05:33:10;7.28;;;3.63;;
54125;SDS011;40360;52.992;6.796;2023-08-17T05:35:36;10.00;;;4.35;;
54125;SDS011;40360;52.992;6.796;2023-08-17T05:38:01;7.93;;;3.40;;
54125;SDS011;40360;52.992;6.796;2023-08-17T05:40:29;6.78;;;3.97;;
54125;SDS011;40360;52.992;6.796;2023-08-17T05:42:55;11.10;;;3.33;;
54125;SDS011;40360;52.992;6.796;2023-08-17T06:02:16;5.88;;;3.78;;
54125;SDS011;40360;52.992;6.796;2023-08-17T06:04:41;7.60;;;3.05;;
54125;SDS011;40360;52.992;6.796;2023-08-17T06:07:07;4.13;;;2.83;;
54125;SDS011;40360;52.992;6.796;2023-08-17T06:09:33;10.68;;;3.35;;
54125;SDS011;40360;52.992;6.796;2023-08-17T06:11:58;6.35;;;2.50;;
54125;SDS011;40360;52.992;6.796;2023-08-17T06:14:24;5.30;;;2.50;;
54125;SDS011;40360;52.992;6.796;2023-08-17T06:16:49;8.52;;;2.55;;
54125;SDS011;40360;52.992;6.796;2023-08-17T06:19:15;7.05;;;2.55;;
54125;SDS011;40360;52.992;6.796;2023-08-17T06:21:40;5.72;;;2.42;;
54125;SDS011;40360;52.992;6.796;2023-08-17T06:24:07;7.70;;;3.10;;
54125;SDS011;40360;52.992;6.796;2023-08-17T06:26:33;5.28;;;2.55;;
54125;SDS011;40360;52.992;6.796;2023-08-17T06:28:59;6.70;;;2.90;;
54125;SDS011;40360;52.992;6.796;2023-08-17T06:31:24;4.45;;;2.10;;
54125;SDS011;40360;52.992;6.796;2023-08-17T06:33:53;6.95;;;2.47;;
54125;SDS011;40360;52.992;6.796;2023-08-17T06:36:19;7.20;;;2.53;;
54125;SDS011;40360;52.992;6.796;2023-08-17T06:38:45;5.85;;;2.63;;
54125;SDS011;40360;52.992;6.796;2023-08-17T06:41:10;4.63;;;2.20;;
54125;SDS011;40360;52.992;6.796;2023-08-17T06:43:36;3.70;;;2.10;;
54125;SDS011;40360;52.992;6.796;2023-08-17T06:46:02;4.32;;;2.28;;
54125;SDS011;40360;52.992;6.796;2023-08-17T06:48:28;4.40;;;2.20;;
54125;SDS011;40360;52.992;6.796;2023-08-17T06:50:53;4.28;;;2.13;;
54125;SDS011;40360;52.992;6.796;2023-08-17T06:53:19;8.50;;;2.10;;
54125;SDS011;40360;52.992;6.796;2023-08-17T06:55:45;5.47;;;2.13;;
54125;SDS011;40360;52.992;6.796;2023-08-17T06:58:11;4.97;;;1.77;;
54125;SDS011;40360;52.992;6.796;2023-08-17T07:00:36;5.65;;;2.20;;
54125;SDS011;40360;52.992;6.796;2023-08-17T07:03:05;7.57;;;1.73;;
54125;SDS011;40360;52.992;6.796;2023-08-17T07:05:31;4.65;;;2.10;;
54125;SDS011;40360;52.992;6.796;2023-08-17T07:07:57;6.43;;;2.15;;
54125;SDS011;40360;52.992;6.796;2023-08-17T07:10:24;5.72;;;1.83;;
54125;SDS011;40360;52.992;6.796;2023-08-17T07:12:50;4.68;;;1.63;;
54125;SDS011;40360;52.992;6.796;2023-08-17T07:15:15;4.05;;;1.80;;
54125;SDS011;40360;52.992;6.796;2023-08-17T07:17:41;5.97;;;2.50;;
54125;SDS011;40360;52.992;6.796;2023-08-17T07:20:07;4.38;;;1.58;;
54125;SDS011;40360;52.992;6.796;2023-08-17T07:22:34;5.97;;;1.90;;
54125;SDS011;40360;52.992;6.796;2023-08-17T07:25:00;5.03;;;2.35;;
54125;SDS011;40360;52.992;6.796;2023-08-17T07:27:26;5.05;;;1.50;;
54125;SDS011;40360;52.992;6.796;2023-08-17T07:29:51;5.43;;;2.15;;
54125;SDS011;40360;52.992;6.796;2023-08-17T07:32:17;4.63;;;1.70;;
54125;SDS011;40360;52.992;6.796;2023-08-17T07:34:43;5.57;;;1.63;;
54125;SDS011;40360;52.992;6.796;2023-08-17T07:37:09;5.40;;;1.48;;
54125;SDS011;40360;52.992;6.796;2023-08-17T07:39:35;5.13;;;1.50;;
54125;SDS011;40360;52.992;6.796;2023-08-17T07:42:00;2.92;;;1.60;;
54125;SDS011;40360;52.992;6.796;2023-08-17T07:44:26;2.45;;;1.48;;
54125;SDS011;40360;52.992;6.796;2023-08-17T07:46:53;4.20;;;1.80;;
54125;SDS011;40360;52.992;6.796;2023-08-17T07:49:19;5.53;;;2.05;;
54125;SDS011;40360;52.992;6.796;2023-08-17T07:51:45;4.70;;;1.63;;
54125;SDS011;40360;52.992;6.796;2023-08-17T07:54:10;3.70;;;1.73;;
54125;SDS011;40360;52.992;6.796;2023-08-17T07:56:36;3.53;;;1.55;;
54125;SDS011;40360;52.992;6.796;2023-08-17T07:59:02;5.15;;;1.60;;
54125;SDS011;40360;52.992;6.796;2023-08-17T08:01:28;2.10;;;1.15;;
54125;SDS011;40360;52.992;6.796;2023-08-17T08:03:53;2.50;;;1.55;;
54125;SDS011;40360;52.992;6.796;2023-08-17T08:06:19;3.63;;;1.50;;
54125;SDS011;40360;52.992;6.796;2023-08-17T08:08:45;4.00;;;1.83;;
54125;SDS011;40360;52.992;6.796;2023-08-17T08:11:11;6.57;;;1.63;;
54125;SDS011;40360;52.992;6.796;2023-08-17T08:13:37;4.45;;;1.40;;
54125;SDS011;40360;52.992;6.796;2023-08-17T08:16:02;5.88;;;1.95;;
54125;SDS011;40360;52.992;6.796;2023-08-17T08:18:28;3.42;;;1.73;;
54125;SDS011;40360;52.992;6.796;2023-08-17T08:20:54;6.03;;;1.50;;
54125;SDS011;40360;52.992;6.796;2023-08-17T08:23:19;4.97;;;1.70;;
54125;SDS011;40360;52.992;6.796;2023-08-17T08:25:45;3.95;;;1.35;;
54125;SDS011;40360;52.992;6.796;2023-08-17T08:28:10;4.38;;;1.60;;
54125;SDS011;40360;52.992;6.796;2023-08-17T08:30:36;4.10;;;1.60;;
54125;SDS011;40360;52.992;6.796;2023-08-17T08:33:02;2.30;;;1.45;;
54125;SDS011;40360;52.992;6.796;2023-08-17T08:35:27;5.97;;;1.60;;
54125;SDS011;40360;52.992;6.796;2023-08-17T08:37:54;8.07;;;2.25;;
54125;SDS011;40360;52.992;6.796;2023-08-17T08:40:27;4.57;;;1.42;;
54125;SDS011;40360;52.992;6.796;2023-08-17T08:42:55;7.90;;;2.17;;
54125;SDS011;40360;52.992;6.796;2023-08-17T08:45:21;4.13;;;1.25;;
54125;SDS011;40360;52.992;6.796;2023-08-17T08:47:48;5.47;;;1.65;;
54125;SDS011;40360;52.992;6.796;2023-08-17T08:50:18;5.10;;;1.83;;
54125;SDS011;40360;52.992;6.796;2023-08-17T08:52:50;3.80;;;1.92;;
54125;SDS011;40360;52.992;6.796;2023-08-17T08:55:26;5.32;;;1.55;;
54125;SDS011;40360;52.992;6.796;2023-08-17T08:57:54;7.05;;;2.10;;
54125;SDS011;40360;52.992;6.796;2023-08-17T09:00:21;4.20;;;1.70;;
54125;SDS011;40360;52.992;6.796;2023-08-17T09:02:49;2.90;;;1.92;;
54125;SDS011;40360;52.992;6.796;2023-08-17T09:05:15;5.45;;;1.75;;
54125;SDS011;40360;52.992;6.796;2023-08-17T09:07:42;3.67;;;1.55;;
54125;SDS011;40360;52.992;6.796;2023-08-17T09:10:08;6.13;;;2.05;;
54125;SDS011;40360;52.992;6.796;2023-08-17T09:12:35;4.55;;;1.60;;
54125;SDS011;40360;52.992;6.796;2023-08-17T09:15:01;4.53;;;1.48;;
54125;SDS011;40360;52.992;6.796;2023-08-17T09:17:27;2.92;;;1.50;;
54125;SDS011;40360;52.992;6.796;2023-08-17T09:19:53;3.10;;;1.48;;
54125;SDS011;40360;52.992;6.796;2023-08-17T09:22:23;4.35;;;1.83;;
54125;SDS011;40360;52.992;6.796;2023-08-17T09:25:01;5.38;;;1.85;;
54125;SDS011;40360;52.992;6.796;2023-08-17T09:27:31;6.22;;;1.85;;
54125;SDS011;40360;52.992;6.796;2023-08-17T09:30:04;4.85;;;1.85;;
54125;SDS011;40360;52.992;6.796;2023-08-17T09:32:31;3.83;;;2.20;;
54125;SDS011;40360;52.992;6.796;2023-08-17T09:35:01;4.90;;;1.50;;
54125;SDS011;40360;52.992;6.796;2023-08-17T09:37:28;4.78;;;1.33;;
54125;SDS011;40360;52.992;6.796;2023-08-17T09:39:54;3.80;;;1.95;;
54125;SDS011;40360;52.992;6.796;2023-08-17T09:42:20;6.45;;;2.08;;
54125;SDS011;40360;52.992;6.796;2023-08-17T09:44:47;3.90;;;1.80;;
54125;SDS011;40360;52.992;6.796;2023-08-17T09:47:14;4.00;;;1.73;;
54125;SDS011;40360;52.992;6.796;2023-08-17T09:49:42;5.03;;;1.90;;
54125;SDS011;40360;52.992;6.796;2023-08-17T09:52:13;4.38;;;2.10;;
54125;SDS011;40360;52.992;6.796;2023-08-17T09:54:39;3.40;;;1.80;;
54125;SDS011;40360;52.992;6.796;2023-08-17T09:57:05;3.95;;;2.15;;
54125;SDS011;40360;52.992;6.796;2023-08-17T09:59:32;6.88;;;2.35;;
54125;SDS011;40360;52.992;6.796;2023-08-17T10:01:58;4.75;;;1.95;;
54125;SDS011;40360;52.992;6.796;2023-08-17T10:04:25;4.20;;;1.90;;
54125;SDS011;40360;52.992;6.796;2023-08-17T10:06:57;2.25;;;1.60;;
54125;SDS011;40360;52.992;6.796;2023-08-17T10:09:25;11.18;;;2.47;;
54125;SDS011;40360;52.992;6.796;2023-08-17T10:12:00;4.53;;;1.90;;
54125;SDS011;40360;52.992;6.796;2023-08-17T10:14:33;4.40;;;2.22;;
54125;SDS011;40360;52.992;6.796;2023-08-17T10:17:02;3.85;;;2.22;;
54125;SDS011;40360;52.992;6.796;2023-08-17T10:19:51;4.95;;;2.88;;
54125;SDS011;40360;52.992;6.796;2023-08-17T10:24:50;6.32;;;2.45;;
54125;SDS011;40360;52.992;6.796;2023-08-17T10:27:16;7.15;;;2.38;;
54125;SDS011;40360;52.992;6.796;2023-08-17T10:29:42;4.38;;;1.92;;
54125;SDS011;40360;52.992;6.796;2023-08-17T10:32:09;4.82;;;2.13;;
54125;SDS011;40360;52.992;6.796;2023-08-17T10:34:36;3.42;;;2.05;;
54125;SDS011;40360;52.992;6.796;2023-08-17T10:37:03;4.05;;;2.30;;
54125;SDS011;40360;52.992;6.796;2023-08-17T10:39:30;4.28;;;2.03;;
54125;SDS011;40360;52.992;6.796;2023-08-17T10:41:57;5.10;;;2.40;;
54125;SDS011;40360;52.992;6.796;2023-08-17T10:47:28;5.00;;;2.58;;
54125;SDS011;40360;52.992;6.796;2023-08-17T10:49:57;5.15;;;2.60;;
54125;SDS011;40360;52.992;6.796;2023-08-17T10:52:30;3.60;;;2.40;;
54125;SDS011;40360;52.992;6.796;2023-08-17T10:55:04;4.38;;;2.70;;
54125;SDS011;40360;52.992;6.796;2023-08-17T11:00:22;5.25;;;2.65;;
54125;SDS011;40360;52.992;6.796;2023-08-17T11:02:55;5.05;;;2.70;;
54125;SDS011;40360;52.992;6.796;2023-08-17T11:05:45;7.18;;;2.90;;
54125;SDS011;40360;52.992;6.796;2023-08-17T11:13:30;5.47;;;2.55;;
54125;SDS011;40360;52.992;6.796;2023-08-17T11:15:58;3.63;;;2.47;;
54125;SDS011;40360;52.992;6.796;2023-08-17T11:18:24;4.68;;;2.90;;
54125;SDS011;40360;52.992;6.796;2023-08-17T11:20:50;5.05;;;3.10;;
54125;SDS011;40360;52.992;6.796;2023-08-17T11:23:16;4.72;;;2.78;;
54125;SDS011;40360;52.992;6.796;2023-08-17T11:25:41;9.43;;;3.45;;
54125;SDS011;40360;52.992;6.796;2023-08-17T11:28:07;5.22;;;3.25;;
54125;SDS011;40360;52.992;6.796;2023-08-17T11:30:34;8.10;;;3.22;;
54125;SDS011;40360;52.992;6.796;2023-08-17T11:33:00;5.13;;;4.63;;
54125;SDS011;40360;52.992;6.796;2023-08-17T11:35:26;4.47;;;3.38;;
54125;SDS011;40360;52.992;6.796;2023-08-17T11:37:52;5.80;;;3.53;;
54125;SDS011;40360;52.992;6.796;2023-08-17T11:40:18;7.97;;;4.10;;
54125;SDS011;40360;52.992;6.796;2023-08-17T11:42:44;6.03;;;3.78;;
54125;SDS011;40360;52.992;6.796;2023-08-17T11:45:10;4.70;;;3.30;;
54125;SDS011;40360;52.992;6.796;2023-08-17T11:47:40;5.05;;;3.40;;
54125;SDS011;40360;52.992;6.796;2023-08-17T11:50:10;5.93;;;4.28;;
54125;SDS011;40360;52.992;6.796;2023-08-17T11:52:37;5.85;;;4.13;;
54125;SDS011;40360;52.992;6.796;2023-08-17T11:55:03;5.43;;;3.80;;
54125;SDS011;40360;52.992;6.796;2023-08-17T11:57:31;6.53;;;3.38;;
54125;SDS011;40360;52.992;6.796;2023-08-17T11:59:58;5.75;;;3.90;;
54125;SDS011;40360;52.992;6.796;2023-08-17T12:02:25;4.13;;;3.30;;
54125;SDS011;40360;52.992;6.796;2023-08-17T12:04:51;7.78;;;4.85;;
54125;SDS011;40360;52.992;6.796;2023-08-17T12:07:17;4.82;;;3.45;;
54125;SDS011;40360;52.992;6.796;2023-08-17T12:09:44;9.73;;;4.28;;
54125;SDS011;40360;52.992;6.796;2023-08-17T12:12:11;5.63;;;3.38;;
54125;SDS011;40360;52.992;6.796;2023-08-17T12:14:40;6.20;;;3.70;;
54125;SDS011;40360;52.992;6.796;2023-08-17T12:17:07;5.80;;;3.97;;
54125;SDS011;40360;52.992;6.796;2023-08-17T12:19:32;4.95;;;3.95;;
54125;SDS011;40360;52.992;6.796;2023-08-17T12:21:58;5.32;;;3.92;;
54125;SDS011;40360;52.992;6.796;2023-08-17T12:24:24;6.78;;;3.65;;
54125;SDS011;40360;52.992;6.796;2023-08-17T12:26:49;6.95;;;3.40;;
54125;SDS011;40360;52.992;6.796;2023-08-17T12:29:15;5.03;;;3.72;;
54125;SDS011;40360;52.992;6.796;2023-08-17T12:31:41;6.22;;;3.22;;
54125;SDS011;40360;52.992;6.796;2023-08-17T12:34:06;5.93;;;3.53;;
54125;SDS011;40360;52.992;6.796;2023-08-17T12:36:32;5.07;;;3.00;;
54125;SDS011;40360;52.992;6.796;2023-08-17T12:38:58;4.25;;;3.25;;
54125;SDS011;40360;52.992;6.796;2023-08-17T12:41:24;5.85;;;3.42;;
54125;SDS011;40360;52.992;6.796;2023-08-17T12:43:50;4.05;;;3.03;;
54125;SDS011;40360;52.992;6.796;2023-08-17T12:46:15;4.35;;;3.25;;
54125;SDS011;40360;52.992;6.796;2023-08-17T12:48:41;4.50;;;3.28;;
54125;SDS011;40360;52.992;6.796;2023-08-17T12:51:06;5.35;;;3.25;;
54125;SDS011;40360;52.992;6.796;2023-08-17T12:53:32;4.68;;;3.10;;
54125;SDS011;40360;52.992;6.796;2023-08-17T12:55:58;4.75;;;2.90;;
54125;SDS011;40360;52.992;6.796;2023-08-17T12:58:23;6.40;;;3.72;;
54125;SDS011;40360;52.992;6.796;2023-08-17T13:00:49;5.13;;;3.80;;
54125;SDS011;40360;52.992;6.796;2023-08-17T13:03:16;7.88;;;3.70;;
54125;SDS011;40360;52.992;6.796;2023-08-17T13:05:42;5.05;;;3.80;;
54125;SDS011;40360;52.992;6.796;2023-08-17T13:08:08;3.75;;;3.30;;
54125;SDS011;40360;52.992;6.796;2023-08-17T13:10:34;3.95;;;3.30;;
54125;SDS011;40360;52.992;6.796;2023-08-17T13:13:00;5.97;;;3.28;;
54125;SDS011;40360;52.992;6.796;2023-08-17T13:15:26;5.43;;;3.70;;
54125;SDS011;40360;52.992;6.796;2023-08-17T13:17:52;6.05;;;4.50;;
54125;SDS011;40360;52.992;6.796;2023-08-17T13:20:17;6.60;;;3.50;;
54125;SDS011;40360;52.992;6.796;2023-08-17T13:22:43;6.25;;;3.25;;
54125;SDS011;40360;52.992;6.796;2023-08-17T13:25:09;4.43;;;3.65;;
54125;SDS011;40360;52.992;6.796;2023-08-17T13:27:34;5.07;;;2.95;;
54125;SDS011;40360;52.992;6.796;2023-08-17T13:30:00;5.32;;;3.30;;
54125;SDS011;40360;52.992;6.796;2023-08-17T13:32:26;4.55;;;3.10;;
54125;SDS011;40360;52.992;6.796;2023-08-17T13:34:52;4.55;;;3.17;;
54125;SDS011;40360;52.992;6.796;2023-08-17T13:37:18;4.85;;;3.47;;
54125;SDS011;40360;52.992;6.796;2023-08-17T13:39:45;6.13;;;3.53;;
54125;SDS011;40360;52.992;6.796;2023-08-17T13:42:11;5.38;;;3.28;;
54125;SDS011;40360;52.992;6.796;2023-08-17T13:44:37;7.68;;;4.25;;
54125;SDS011;40360;52.992;6.796;2023-08-17T13:47:03;4.47;;;4.07;;
54125;SDS011;40360;52.992;6.796;2023-08-17T13:49:29;8.85;;;3.90;;
54125;SDS011;40360;52.992;6.796;2023-08-17T13:51:54;8.57;;;3.85;;
54125;SDS011;40360;52.992;6.796;2023-08-17T13:54:21;5.72;;;3.97;;
54125;SDS011;40360;52.992;6.796;2023-08-17T13:56:47;7.82;;;4.68;;
54125;SDS011;40360;52.992;6.796;2023-08-17T13:59:13;6.75;;;4.40;;
54125;SDS011;40360;52.992;6.796;2023-08-17T14:01:39;5.15;;;4.45;;
54125;SDS011;40360;52.992;6.796;2023-08-17T14:04:05;6.85;;;5.32;;
54125;SDS011;40360;52.992;6.796;2023-08-17T14:06:36;5.60;;;4.38;;
54125;SDS011;40360;52.992;6.796;2023-08-17T14:09:03;6.97;;;5.20;;
54125;SDS011;40360;52.992;6.796;2023-08-17T14:11:29;5.70;;;4.55;;
54125;SDS011;40360;52.992;6.796;2023-08-17T14:13:54;5.65;;;4.32;;
54125;SDS011;40360;52.992;6.796;2023-08-17T14:16:20;9.60;;;4.85;;
54125;SDS011;40360;52.992;6.796;2023-08-17T14:18:46;6.30;;;4.75;;
54125;SDS011;40360;52.992;6.796;2023-08-17T14:21:11;5.25;;;4.30;;
54125;SDS011;40360;52.992;6.796;2023-08-17T14:23:38;8.05;;;4.75;;
54125;SDS011;40360;52.992;6.796;2023-08-17T14:26:04;8.88;;;4.47;;
54125;SDS011;40360;52.992;6.796;2023-08-17T14:28:30;6.13;;;4.45;;
54125;SDS011;40360;52.992;6.796;2023-08-17T14:30:55;5.00;;;4.45;;
54125;SDS011;40360;52.992;6.796;2023-08-17T14:33:21;6.70;;;4.85;;
54125;SDS011;40360;52.992;6.796;2023-08-17T14:35:47;7.78;;;4.55;;
54125;SDS011;40360;52.992;6.796;2023-08-17T14:38:12;5.88;;;5.13;;
54125;SDS011;40360;52.992;6.796;2023-08-17T14:40:45;10.07;;;5.88;;
54125;SDS011;40360;52.992;6.796;2023-08-17T14:43:12;5.78;;;5.18;;
54125;SDS011;40360;52.992;6.796;2023-08-17T14:45:41;7.18;;;5.22;;
54125;SDS011;40360;52.992;6.796;2023-08-17T14:48:07;5.88;;;5.30;;
54125;SDS011;40360;52.992;6.796;2023-08-17T14:50:36;5.78;;;5.28;;
54125;SDS011;40360;52.992;6.796;2023-08-17T14:53:03;7.03;;;5.38;;
54125;SDS011;40360;52.992;6.796;2023-08-17T14:55:31;6.10;;;5.50;;
54125;SDS011;40360;52.992;6.796;2023-08-17T14:57:57;8.32;;;5.88;;
54125;SDS011;40360;52.992;6.796;2023-08-17T15:00:23;7.18;;;6.47;;
54125;SDS011;40360;52.992;6.796;2023-08-17T15:02:50;9.00;;;5.72;;
54125;SDS011;40360;52.992;6.796;2023-08-17T15:05:16;7.78;;;5.65;;
54125;SDS011;40360;52.992;6.796;2023-08-17T15:07:42;8.70;;;6.03;;
54125;SDS011;40360;52.992;6.796;2023-08-17T15:10:08;8.68;;;6.45;;
54125;SDS011;40360;52.992;6.796;2023-08-17T15:12:33;8.43;;;6.80;;
54125;SDS011;40360;52.992;6.796;2023-08-17T15:14:59;8.60;;;7.00;;
54125;SDS011;40360;52.992;6.796;2023-08-17T15:17:26;7.65;;;6.47;;
54125;SDS011;40360;52.992;6.796;2023-08-17T15:19:51;7.32;;;6.40;;